Time;durP1;ratioP1;P1;durP2;ratioP2;P2;SDS_P1;SDS_P2;PMS_P1;PMS_P2;Temp;Humidity;BMP_temperature;BMP_pressure;BME280_temperature;BME280_humidity;BME280_pressure;Samples;Min_cycle;Max_cycle;Signal;HPM_P1;HPM_P2
2022/02/18 00:00:24;;;;;;;2.65;1.27;;;22.40;46.30;;;;;;4994208;28;20061;-68
2022/02/18 00:02:50;;;;;;;2.17;1.00;;;22.40;46.30;;;;;;5002304;28;20169;-70
2022/02/18 00:05:16;;;;;;;4.25;1.20;;;22.40;46.30;;;;;;5012287;28;20545;-69
2022/02/18 00:07:42;;;;;;;2.78;1.10;;;22.40;46.30;;;;;;4996749;28;20069;-69
2022/02/18 00:10:08;;;;;;;1.73;1.00;;;22.30;46.30;;;;;;4996673;28;20026;-70
2022/02/18 00:12:34;;;;;;;3.10;1.20;;;22.30;46.30;;;;;;4997125;28;20022;-68
2022/02/18 00:14:59;;;;;;;2.35;1.10;;;22.30;46.30;;;;;;5010441;28;20030;-70
2022/02/18 00:17:25;;;;;;;2.40;1.10;;;22.30;46.30;;;;;;4996648;28;20124;-70
2022/02/18 00:19:51;;;;;;;4.03;1.30;;;22.30;46.30;;;;;;4994850;28;20032;-69
2022/02/18 00:22:16;;;;;;;1.95;0.93;;;22.30;46.30;;;;;;4997143;28;20038;-70
2022/02/18 00:24:42;;;;;;;1.75;1.02;;;22.30;46.40;;;;;;4996949;28;20053;-68
2022/02/18 00:27:08;;;;;;;2.20;0.90;;;22.20;46.30;;;;;;4996053;28;20034;-69
2022/02/18 00:29:33;;;;;;;1.83;0.98;;;22.20;46.40;;;;;;4996096;28;20109;-70
2022/02/18 00:31:59;;;;;;;1.90;1.10;;;22.20;46.40;;;;;;4995299;28;20430;-69
2022/02/18 00:34:25;;;;;;;2.83;1.00;;;22.20;46.50;;;;;;4995607;28;20030;-69
2022/02/18 00:36:50;;;;;;;2.38;0.90;;;22.20;46.50;;;;;;4995686;28;20029;-68
2022/02/18 00:39:16;;;;;;;2.72;0.95;;;22.20;46.70;;;;;;4996911;28;20152;-70
2022/02/18 00:41:42;;;;;;;2.25;0.98;;;22.10;46.40;;;;;;4996810;28;20074;-69
2022/02/18 00:44:07;;;;;;;2.88;0.95;;;22.10;46.40;;;;;;4996126;28;20026;-65
2022/02/18 00:46:33;;;;;;;2.97;1.10;;;22.10;46.50;;;;;;4994969;28;20139;-69
2022/02/18 00:48:59;;;;;;;2.78;1.08;;;22.10;46.50;;;;;;4994446;28;20118;-68
2022/02/18 00:51:25;;;;;;;1.80;1.00;;;22.10;46.50;;;;;;4997141;28;20033;-69
2022/02/18 00:53:50;;;;;;;2.00;0.90;;;22.10;47.00;;;;;;4995310;28;20513;-69
2022/02/18 00:56:17;;;;;;;2.53;1.05;;;22.10;46.50;;;;;;4995398;28;20026;-68
2022/02/18 00:58:43;;;;;;;3.15;1.30;;;22.10;46.50;;;;;;4995903;28;20037;-68
2022/02/18 01:01:09;;;;;;;2.00;1.25;;;22.00;46.50;;;;;;4994944;28;20038;-69
2022/02/18 01:03:36;;;;;;;1.98;1.00;;;22.00;46.50;;;;;;4996432;28;20033;-68
2022/02/18 01:06:02;;;;;;;2.70;1.15;;;22.00;46.50;;;;;;4996999;28;20026;-67
2022/02/18 01:08:28;;;;;;;1.58;0.95;;;22.00;46.50;;;;;;4997748;28;20040;-69
2022/02/18 01:10:53;;;;;;;1.85;0.90;;;22.00;46.60;;;;;;5011962;28;20564;-69
2022/02/18 01:13:19;;;;;;;2.88;1.10;;;22.00;46.60;;;;;;5001266;28;20565;-70
2022/02/18 01:15:45;;;;;;;1.92;1.00;;;22.00;46.50;;;;;;5010188;28;20092;-68
2022/02/18 01:18:11;;;;;;;2.08;1.05;;;21.90;46.70;;;;;;4995960;28;20113;-68
2022/02/18 01:20:37;;;;;;;2.25;1.00;;;21.90;47.10;;;;;;4995668;28;20030;-70
2022/02/18 01:23:03;;;;;;;2.00;1.00;;;21.90;46.60;;;;;;4997984;28;20030;-69
2022/02/18 01:25:29;;;;;;;2.33;1.10;;;21.90;46.60;;;;;;4998850;28;20100;-69
2022/02/18 01:27:58;;;;;;;3.97;1.05;;;21.90;46.60;;;;;;4999812;28;20107;-69
2022/02/18 01:30:25;;;;;;;3.72;1.20;;;21.90;47.20;;;;;;4996938;28;20030;-67
2022/02/18 01:32:51;;;;;;;2.30;1.00;;;21.80;46.60;;;;;;5015890;28;20140;-65
2022/02/18 01:35:18;;;;;;;2.42;1.08;;;21.80;46.60;;;;;;4999321;28;20023;-65
2022/02/18 01:37:45;;;;;;;3.63;1.00;;;21.80;46.60;;;;;;5001169;28;20029;-68
2022/02/18 01:40:12;;;;;;;1.90;0.90;;;21.80;46.60;;;;;;5001033;28;20066;-68
2022/02/18 01:42:37;;;;;;;2.38;1.10;;;21.80;46.60;;;;;;5000281;28;20029;-69
2022/02/18 01:45:04;;;;;;;1.85;0.90;;;21.80;46.70;;;;;;4996367;28;20030;-68
2022/02/18 01:47:30;;;;;;;2.15;0.90;;;21.80;46.70;;;;;;4999577;28;20033;-69
2022/02/18 01:49:58;;;;;;;1.55;1.00;;;21.80;46.70;;;;;;4997534;28;20538;-67
2022/02/18 01:52:29;;;;;;;1.80;0.80;;;21.80;46.70;;;;;;4999643;28;20033;-69
2022/02/18 01:54:55;;;;;;;2.20;0.95;;;21.70;46.70;;;;;;4998888;28;20054;-69
2022/02/18 01:57:28;;;;;;;1.58;0.98;;;21.70;46.70;;;;;;5000007;28;20138;-66
2022/02/18 01:59:53;;;;;;;2.30;1.00;;;21.70;46.90;;;;;;4996930;28;20220;-66
2022/02/18 02:02:19;;;;;;;1.90;0.90;;;21.70;46.70;;;;;;4998138;28;20398;-70
2022/02/18 02:04:46;;;;;;;2.03;0.80;;;21.70;46.70;;;;;;5010737;28;20041;-69
2022/02/18 02:07:12;;;;;;;2.03;1.00;;;21.70;46.80;;;;;;4998392;28;20034;-70
2022/02/18 02:09:37;;;;;;;1.52;0.80;;;21.70;46.80;;;;;;4999889;28;20030;-67
2022/02/18 02:12:04;;;;;;;4.28;2.08;;;21.70;46.80;;;;;;4999430;28;20018;-67
2022/02/18 02:14:30;;;;;;;2.50;1.00;;;21.70;46.80;;;;;;4999239;28;20034;-68
2022/02/18 02:16:56;;;;;;;2.35;0.80;;;21.60;46.80;;;;;;5012243;28;20022;-66
2022/02/18 02:19:22;;;;;;;1.30;0.70;;;21.70;46.80;;;;;;5012051;28;20496;-69
2022/02/18 02:21:53;;;;;;;1.65;0.90;;;21.70;46.80;;;;;;5015049;28;20057;-68
2022/02/18 02:24:19;;;;;;;1.63;0.93;;;21.60;46.80;;;;;;4998148;28;20525;-70
2022/02/18 02:26:44;;;;;;;1.83;0.88;;;21.60;46.80;;;;;;4997233;28;20048;-69
2022/02/18 02:29:11;;;;;;;2.42;0.88;;;21.60;46.90;;;;;;4996340;28;20030;-69
2022/02/18 02:31:37;;;;;;;1.90;1.10;;;21.60;46.90;;;;;;4997010;28;20046;-69
2022/02/18 02:34:04;;;;;;;1.60;0.90;;;21.60;46.80;;;;;;4997963;28;20800;-68
2022/02/18 02:36:29;;;;;;;1.83;0.80;;;21.60;46.80;;;;;;5000299;28;20025;-69
2022/02/18 02:38:55;;;;;;;1.70;0.88;;;21.60;46.90;;;;;;4998958;28;20056;-68
2022/02/18 02:41:22;;;;;;;1.85;0.80;;;21.50;46.80;;;;;;4999149;28;20030;-66
2022/02/18 02:43:49;;;;;;;1.70;0.85;;;21.50;46.80;;;;;;4998152;28;20030;-68
2022/02/18 02:46:14;;;;;;;2.05;1.20;;;21.50;46.90;;;;;;4997323;28;20033;-65
2022/02/18 02:48:41;;;;;;;1.75;0.80;;;21.50;46.90;;;;;;4997117;28;20033;-69
2022/02/18 02:51:07;;;;;;;2.05;0.95;;;21.50;46.90;;;;;;4998773;28;20518;-69
2022/02/18 02:53:33;;;;;;;1.73;0.80;;;21.50;46.90;;;;;;4999039;28;20026;-68
2022/02/18 02:55:58;;;;;;;1.52;0.90;;;21.50;46.90;;;;;;4998079;28;20025;-66
2022/02/18 02:58:24;;;;;;;1.90;0.90;;;21.50;46.90;;;;;;4996877;28;20061;-70
2022/02/18 03:00:51;;;;;;;1.98;0.80;;;21.50;46.90;;;;;;4994437;28;20117;-68
2022/02/18 03:03:17;;;;;;;2.38;1.10;;;21.40;47.40;;;;;;4995348;28;20027;-66
2022/02/18 03:05:43;;;;;;;1.92;1.00;;;21.50;47.00;;;;;;4997940;28;20348;-69
2022/02/18 03:08:09;;;;;;;1.58;0.70;;;21.50;47.00;;;;;;4999825;28;20026;-68
2022/02/18 03:10:35;;;;;;;1.92;1.00;;;21.40;46.90;;;;;;4998233;28;20514;-66
2022/02/18 03:13:01;;;;;;;1.88;0.80;;;21.40;47.00;;;;;;4998864;28;20358;-68
2022/02/18 03:15:27;;;;;;;1.73;0.85;;;21.40;46.90;;;;;;5011111;28;20018;-66
2022/02/18 03:17:53;;;;;;;2.05;0.80;;;21.40;47.00;;;;;;5001749;28;20034;-69
2022/02/18 03:20:19;;;;;;;1.80;0.95;;;21.40;47.00;;;;;;4996949;28;20133;-69
2022/02/18 03:22:44;;;;;;;2.05;0.98;;;21.40;47.00;;;;;;5004262;28;20026;-68
2022/02/18 03:25:10;;;;;;;1.48;0.80;;;21.40;47.00;;;;;;4998597;28;20080;-68
2022/02/18 03:27:37;;;;;;;1.92;1.00;;;21.40;47.20;;;;;;4997568;28;20037;-68
2022/02/18 03:30:07;;;;;;;2.15;0.82;;;21.40;47.00;;;;;;4996145;28;20754;-67
2022/02/18 03:32:33;;;;;;;;;;;21.30;47.00;;;;;;4998622;28;20046;-70
2022/02/18 03:34:59;;;;;;;1.70;0.80;;;21.40;47.00;;;;;;4996729;28;20340;-68
2022/02/18 03:37:24;;;;;;;1.45;0.80;;;21.40;47.00;;;;;;4998931;28;20053;-66
2022/02/18 03:39:50;;;;;;;1.65;0.80;;;21.30;47.30;;;;;;4996231;28;20030;-69
2022/02/18 03:42:16;;;;;;;2.95;0.90;;;21.30;47.00;;;;;;4996755;28;20030;-66
2022/02/18 03:44:41;;;;;;;2.10;0.80;;;21.30;47.10;;;;;;4994970;28;20048;-68
2022/02/18 03:47:07;;;;;;;1.35;0.70;;;21.30;47.00;;;;;;4997066;28;20165;-68
2022/02/18 03:49:33;;;;;;;1.67;0.80;;;21.30;47.10;;;;;;4996457;28;20053;-66
2022/02/18 03:51:59;;;;;;;1.60;0.90;;;21.30;47.10;;;;;;4998330;28;20034;-68
2022/02/18 03:54:26;;;;;;;1.20;0.60;;;21.30;47.10;;;;;;4998012;28;20018;-69
2022/02/18 03:56:53;;;;;;;1.92;0.90;;;21.30;47.10;;;;;;4997448;28;20442;-66
2022/02/18 03:59:18;;;;;;;1.52;0.90;;;21.30;47.20;;;;;;4994455;28;20072;-66
2022/02/18 04:01:44;;;;;;;1.67;0.80;;;21.20;47.10;;;;;;4994203;28;20460;-68
2022/02/18 04:04:10;;;;;;;1.52;0.70;;;21.20;47.20;;;;;;5001061;28;20506;-68
2022/02/18 04:06:35;;;;;;;1.67;0.80;;;21.20;47.10;;;;;;5013218;28;20042;-69
2022/02/18 04:09:01;;;;;;;1.92;0.80;;;21.20;47.20;;;;;;4996639;28;20033;-68
2022/02/18 04:11:27;;;;;;;1.95;0.90;;;21.20;47.20;;;;;;4997512;28;20030;-67
2022/02/18 04:13:52;;;;;;;1.73;0.90;;;21.20;47.20;;;;;;4998102;28;20041;-69
2022/02/18 04:16:19;;;;;;;2.20;0.73;;;21.20;47.70;;;;;;4995645;28;20030;-69
2022/02/18 04:18:45;;;;;;;1.38;0.82;;;21.20;47.20;;;;;;4995816;28;20033;-66
2022/02/18 04:21:10;;;;;;;1.55;0.80;;;21.20;47.30;;;;;;4995988;28;20049;-70
2022/02/18 04:23:36;;;;;;;1.73;0.77;;;21.20;47.80;;;;;;5011917;28;20041;-66
2022/02/18 04:26:03;;;;;;;1.33;0.75;;;21.20;47.30;;;;;;4995724;28;20026;-69
2022/02/18 04:28:28;;;;;;;1.50;0.70;;;21.20;47.20;;;;;;4995692;28;20039;-68
2022/02/18 04:30:54;;;;;;;1.83;0.80;;;21.10;47.20;;;;;;4995205;28;20041;-68
2022/02/18 04:33:20;;;;;;;1.77;0.80;;;21.20;47.30;;;;;;4996714;28;20057;-69
2022/02/18 04:35:46;;;;;;;1.33;0.70;;;21.20;47.30;;;;;;4997774;28;20037;-65
2022/02/18 04:38:11;;;;;;;1.38;0.70;;;21.10;47.20;;;;;;4994957;28;20037;-68
2022/02/18 04:40:37;;;;;;;1.50;0.73;;;21.10;47.20;;;;;;4995382;28;20087;-68
2022/02/18 04:43:03;;;;;;;1.05;0.65;;;21.10;47.40;;;;;;4997850;28;20104;-65
2022/02/18 04:45:29;;;;;;;2.65;1.05;;;21.10;47.30;;;;;;4994395;28;20030;-68
2022/02/18 04:47:54;;;;;;;1.50;0.73;;;21.10;47.30;;;;;;4995853;28;20026;-69
2022/02/18 04:50:23;;;;;;;1.73;0.80;;;21.10;47.30;;;;;;4995323;28;20027;-66
2022/02/18 04:52:48;;;;;;;1.20;0.80;;;21.10;47.30;;;;;;4995665;28;20678;-66
2022/02/18 04:55:14;;;;;;;1.73;0.75;;;21.10;47.80;;;;;;4995474;28;20026;-68
2022/02/18 04:57:46;;;;;;;2.25;0.80;;;21.10;47.30;;;;;;4997269;28;20144;-69
2022/02/18 05:00:12;;;;;;;1.42;0.80;;;21.10;47.40;;;;;;4994059;28;20034;-69
2022/02/18 05:02:38;;;;;;;1.80;0.80;;;21.10;47.30;;;;;;4995336;28;20034;-68
2022/02/18 05:05:04;;;;;;;1.35;0.70;;;21.10;47.30;;;;;;5011616;28;20061;-68
2022/02/18 05:07:30;;;;;;;1.30;0.70;;;21.10;47.40;;;;;;4996190;28;20035;-68
2022/02/18 05:09:56;;;;;;;1.40;0.75;;;21.10;47.30;;;;;;4995976;28;20038;-69
2022/02/18 05:12:21;;;;;;;1.75;0.82;;;21.10;47.40;;;;;;4997834;28;20032;-69
2022/02/18 05:14:49;;;;;;;1.85;0.75;;;21.10;47.30;;;;;;4995219;28;20044;-70
2022/02/18 05:17:14;;;;;;;1.92;0.90;;;21.10;47.30;;;;;;4995932;28;20160;-66
2022/02/18 05:19:40;;;;;;;1.60;0.80;;;21.10;47.40;;;;;;5010416;28;20501;-69
2022/02/18 05:22:06;;;;;;;2.13;0.93;;;21.10;47.40;;;;;;4998564;28;20096;-69
2022/02/18 05:24:31;;;;;;;1.45;0.80;;;21.10;47.40;;;;;;4996415;28;20023;-66
2022/02/18 05:26:57;;;;;;;1.55;0.70;;;21.10;47.40;;;;;;4997060;28;20332;-68
2022/02/18 05:29:22;;;;;;;2.00;0.85;;;21.00;47.40;;;;;;4993155;28;20030;-69
2022/02/18 05:31:48;;;;;;;1.48;0.70;;;21.00;47.40;;;;;;5010530;28;20026;-68
2022/02/18 05:34:14;;;;;;;1.83;0.80;;;21.10;47.50;;;;;;4995931;28;20133;-65
2022/02/18 05:36:39;;;;;;;2.40;0.90;;;21.00;47.40;;;;;;4998038;28;20037;-68
2022/02/18 05:39:05;;;;;;;1.58;0.82;;;21.00;47.40;;;;;;4996947;28;20528;-69
2022/02/18 05:41:32;;;;;;;2.10;0.90;;;21.00;47.50;;;;;;4995603;28;20519;-66
2022/02/18 05:43:58;;;;;;;2.00;0.90;;;21.00;47.50;;;;;;4995473;28;20118;-70
2022/02/18 05:46:24;;;;;;;1.35;0.70;;;21.00;47.50;;;;;;4993449;28;20409;-69
2022/02/18 05:48:49;;;;;;;1.63;0.85;;;21.00;47.50;;;;;;4995058;28;20033;-69
2022/02/18 05:51:15;;;;;;;1.48;0.88;;;21.00;47.50;;;;;;4994561;28;20164;-68
2022/02/18 05:53:40;;;;;;;1.30;0.60;;;21.00;47.50;;;;;;4999598;28;20026;-70
2022/02/18 05:56:07;;;;;;;1.20;0.70;;;21.00;47.50;;;;;;4997455;28;20042;-65
2022/02/18 05:58:32;;;;;;;1.60;0.70;;;21.00;47.50;;;;;;4992976;28;20133;-65
2022/02/18 06:00:59;;;;;;;1.08;0.63;;;21.00;47.50;;;;;;5009689;28;20128;-68
2022/02/18 06:03:24;;;;;;;3.03;0.93;;;21.00;47.50;;;;;;5010679;28;20107;-65
2022/02/18 06:05:50;;;;;;;1.38;0.70;;;21.00;47.60;;;;;;5006522;28;20026;-65
2022/02/18 06:08:16;;;;;;;1.00;0.68;;;21.00;47.60;;;;;;4995524;28;20036;-69
2022/02/18 06:10:41;;;;;;;1.55;1.00;;;21.00;47.60;;;;;;4998824;28;20033;-68
2022/02/18 06:13:07;;;;;;;1.60;0.90;;;21.00;47.60;;;;;;4997413;28;20034;-69
2022/02/18 06:15:33;;;;;;;1.70;0.82;;;21.00;47.60;;;;;;4996053;28;20026;-69
2022/02/18 06:17:58;;;;;;;1.00;0.68;;;21.00;47.60;;;;;;4997120;28;20560;-67
2022/02/18 06:20:24;;;;;;;1.48;0.80;;;21.00;48.20;;;;;;4996965;28;20030;-65
2022/02/18 06:22:50;;;;;;;1.65;0.90;;;21.10;49.00;;;;;;4999001;28;20876;-63
2022/02/18 06:25:15;;;;;;;2.65;0.80;;;21.40;49.10;;;;;;4999906;28;20024;-66
2022/02/18 06:27:42;;;;;;;1.42;0.80;;;21.60;48.70;;;;;;4998609;28;20095;-66
2022/02/18 06:30:08;;;;;;;1.77;1.00;;;21.80;48.50;;;;;;4996132;28;20643;-66
2022/02/18 06:32:34;;;;;;;1.52;0.77;;;22.10;48.40;;;;;;4996621;28;20422;-65
2022/02/18 06:34:59;;;;;;;1.52;0.80;;;22.20;48.00;;;;;;4997598;28;20022;-65
2022/02/18 06:37:25;;;;;;;1.45;0.80;;;22.50;48.00;;;;;;5014268;28;20030;-66
2022/02/18 06:39:51;;;;;;;1.40;0.70;;;22.60;47.70;;;;;;4997752;28;20040;-66
2022/02/18 06:42:17;;;;;;;1.40;0.70;;;22.80;47.60;;;;;;4997744;28;20610;-66
2022/02/18 06:44:43;;;;;;;0.90;0.63;;;22.90;47.50;;;;;;4996817;28;20030;-67
2022/02/18 06:47:08;;;;;;;1.65;0.75;;;23.10;47.40;;;;;;4996026;28;20034;-67
2022/02/18 06:49:34;;;;;;;1.17;0.68;;;23.20;47.40;;;;;;5012156;28;20037;-68
2022/02/18 06:52:00;;;;;;;0.60;0.50;;;23.30;47.20;;;;;;4998723;28;20565;-66
2022/02/18 06:54:30;;;;;;;0.70;0.47;;;23.40;47.10;;;;;;4998092;28;20391;-67
2022/02/18 06:57:00;;;;;;;0.82;0.40;;;23.40;47.00;;;;;;4997480;28;20442;-63
2022/02/18 06:59:26;;;;;;;0.75;0.47;;;23.30;47.00;;;;;;4994890;28;20026;-67
2022/02/18 07:01:54;;;;;;;0.50;0.50;;;23.20;47.30;;;;;;4995447;28;20061;-66
2022/02/18 07:04:24;;;;;;;1.02;0.60;;;23.10;47.50;;;;;;4997549;28;20511;-66
2022/02/18 07:06:51;;;;;;;0.98;0.60;;;23.10;47.50;;;;;;4997410;28;20080;-62
2022/02/18 07:09:17;;;;;;;1.17;0.70;;;23.10;48.00;;;;;;4997695;28;20026;-64
2022/02/18 07:11:43;;;;;;;1.13;0.60;;;23.30;48.00;;;;;;4998077;28;20371;-65
2022/02/18 07:14:09;;;;;;;1.35;0.80;;;23.60;47.60;;;;;;4996935;28;20406;-67
2022/02/18 07:16:36;;;;;;;1.35;0.60;;;23.90;47.10;;;;;;4996748;28;20030;-66
2022/02/18 07:19:02;;;;;;;0.60;0.50;;;24.10;46.70;;;;;;4997119;28;20025;-67
2022/02/18 07:21:28;;;;;;;0.70;0.40;;;24.30;46.50;;;;;;4997382;28;20091;-66
2022/02/18 07:23:57;;;;;;;1.15;0.50;;;24.30;46.30;;;;;;4996766;28;20439;-66
2022/02/18 07:26:23;;;;;;;1.45;0.50;;;24.10;46.40;;;;;;4993347;28;20030;-67
2022/02/18 07:28:48;;;;;;;0.95;0.60;;;24.00;46.60;;;;;;4996527;28;20045;-63
2022/02/18 07:31:14;;;;;;;0.55;0.45;;;23.90;47.10;;;;;;4995961;28;20049;-68
2022/02/18 07:33:39;;;;;;;0.60;0.40;;;23.90;47.30;;;;;;4997462;28;20030;-66
2022/02/18 07:36:05;;;;;;;0.93;0.60;;;23.90;47.20;;;;;;4998980;28;20030;-66
2022/02/18 07:38:31;;;;;;;1.00;0.57;;;23.90;47.10;;;;;;5003647;28;20045;-63
2022/02/18 07:40:56;;;;;;;0.90;0.57;;;23.90;47.80;;;;;;4997962;28;20021;-62
2022/02/18 07:43:22;;;;;;;0.43;0.43;;;23.90;47.40;;;;;;4998031;28;20121;-66
2022/02/18 07:45:48;;;;;;;0.85;0.50;;;23.90;47.40;;;;;;5012448;28;20053;-66
2022/02/18 07:48:13;;;;;;;0.60;0.50;;;23.90;47.50;;;;;;4997795;28;20014;-65
2022/02/18 07:50:39;;;;;;;1.00;0.70;;;23.90;47.70;;;;;;4996121;28;20118;-66
2022/02/18 07:53:05;;;;;;;0.88;0.50;;;23.90;47.90;;;;;;4996340;28;20109;-67
2022/02/18 07:55:30;;;;;;;0.82;0.60;;;23.90;48.30;;;;;;4997947;28;20029;-63
2022/02/18 07:57:56;;;;;;;1.88;0.90;;;23.90;46.50;;;;;;4996738;28;20027;-65
2022/02/18 08:00:26;;;;;;;1.38;0.70;;;23.90;44.70;;;;;;5009889;28;20061;-67
2022/02/18 08:02:51;;;;;;;1.27;0.75;;;23.90;45.50;;;;;;4996800;28;20064;-66
2022/02/18 08:05:17;;;;;;;1.20;0.80;;;23.90;45.10;;;;;;4995900;28;20066;-67
2022/02/18 08:07:43;;;;;;;1.42;0.70;;;23.90;45.30;;;;;;5011161;28;20035;-66
2022/02/18 08:10:10;;;;;;;1.48;0.68;;;23.90;45.50;;;;;;4997420;28;20410;-63
2022/02/18 08:12:35;;;;;;;1.58;0.60;;;23.90;45.60;;;;;;4997421;28;20029;-68
2022/02/18 08:15:01;;;;;;;1.38;0.70;;;23.90;45.70;;;;;;5000559;28;20037;-67
2022/02/18 08:17:37;;;;;;;0.77;0.60;;;23.90;45.80;;;;;;4997176;28;20124;-65
2022/02/18 08:20:07;;;;;;;1.45;0.60;;;23.90;46.10;;;;;;5010593;28;20034;-62
2022/02/18 08:22:40;;;;;;;1.98;0.75;;;24.00;46.50;;;;;;4998400;28;20045;-65
2022/02/18 08:25:07;;;;;;;0.90;0.60;;;24.00;46.60;;;;;;4998512;28;20505;-66
2022/02/18 08:27:33;;;;;;;1.05;0.70;;;24.00;46.60;;;;;;4998196;28;20038;-66
2022/02/18 08:29:59;;;;;;;0.90;0.60;;;24.00;46.70;;;;;;4994101;28;20141;-64
2022/02/18 08:32:24;;;;;;;0.85;0.77;;;24.10;46.70;;;;;;4995199;28;20505;-66
2022/02/18 08:34:50;;;;;;;0.73;0.50;;;24.10;46.90;;;;;;4998376;28;20030;-63
2022/02/18 08:37:15;;;;;;;0.80;0.60;;;24.10;47.00;;;;;;4998330;28;20050;-66
2022/02/18 08:39:41;;;;;;;1.70;0.75;;;24.10;47.00;;;;;;4996949;28;20042;-65
2022/02/18 08:42:07;;;;;;;1.00;0.70;;;24.10;47.30;;;;;;4996527;28;20037;-66
2022/02/18 08:44:33;;;;;;;0.85;0.70;;;24.10;47.40;;;;;;4996793;28;20517;-66
2022/02/18 08:46:59;;;;;;;1.52;0.70;;;24.10;47.40;;;;;;4995756;28;20030;-67
2022/02/18 08:49:24;;;;;;;1.27;0.70;;;24.10;47.40;;;;;;5008239;28;20037;-66
2022/02/18 08:51:50;;;;;;;0.93;0.60;;;24.10;47.30;;;;;;4997242;28;20498;-66
2022/02/18 08:54:16;;;;;;;1.10;0.68;;;24.10;47.20;;;;;;5001817;28;20084;-63
2022/02/18 08:56:42;;;;;;;1.05;0.70;;;24.20;47.50;;;;;;4997595;28;20394;-66
2022/02/18 08:59:08;;;;;;;1.13;0.60;;;24.20;47.40;;;;;;4994755;28;20065;-62
2022/02/18 09:01:35;;;;;;;1.90;0.77;;;24.20;47.60;;;;;;4995614;28;20044;-65
2022/02/18 09:04:00;;;;;;;1.02;0.57;;;24.20;47.50;;;;;;4995893;28;20387;-62
2022/02/18 09:06:26;;;;;;;0.65;0.50;;;24.20;47.60;;;;;;4997734;28;20037;-66
2022/02/18 09:08:52;;;;;;;0.90;0.60;;;24.20;47.70;;;;;;5000097;28;20022;-66
2022/02/18 09:11:19;;;;;;;0.50;0.50;;;24.20;47.60;;;;;;4997601;28;20033;-63
2022/02/18 09:13:44;;;;;;;0.95;0.60;;;24.20;47.70;;;;;;4996234;28;20085;-65
2022/02/18 09:16:11;;;;;;;1.25;0.63;;;24.20;47.50;;;;;;4995692;28;20026;-66
2022/02/18 09:18:37;;;;;;;1.45;0.60;;;24.20;47.40;;;;;;4997217;28;20029;-66
2022/02/18 09:21:03;;;;;;;0.82;0.60;;;24.30;47.60;;;;;;4993450;28;20080;-67
2022/02/18 09:23:28;;;;;;;0.80;0.55;;;24.30;47.60;;;;;;4996393;28;20735;-65
2022/02/18 09:25:54;;;;;;;1.15;0.65;;;24.30;47.70;;;;;;5011673;28;20480;-66
2022/02/18 09:28:20;;;;;;;1.20;0.60;;;24.30;47.90;;;;;;4996427;28;20021;-64
2022/02/18 09:30:47;;;;;;;0.57;0.40;;;24.30;48.20;;;;;;4993177;28;20065;-67
2022/02/18 09:33:14;;;;;;;0.98;0.55;;;24.30;48.10;;;;;;4996461;28;20030;-67
2022/02/18 09:35:41;;;;;;;0.80;0.60;;;24.30;47.80;;;;;;4997736;28;20517;-66
2022/02/18 09:38:07;;;;;;;0.80;0.60;;;24.30;48.20;;;;;;5001916;28;20439;-65
2022/02/18 09:40:35;;;;;;;0.63;0.50;;;24.30;48.00;;;;;;4995068;28;20057;-67
2022/02/18 09:43:01;;;;;;;0.90;0.70;;;24.40;48.10;;;;;;4996839;28;20026;-62
2022/02/18 09:45:27;;;;;;;0.90;0.68;;;24.40;48.30;;;;;;4996855;28;20026;-66
2022/02/18 09:47:53;;;;;;;0.93;0.55;;;24.40;48.20;;;;;;5000211;28;20457;-65
2022/02/18 09:50:19;;;;;;;0.73;0.50;;;24.40;48.60;;;;;;4996781;28;20030;-66
2022/02/18 09:52:45;;;;;;;0.50;0.50;;;24.40;48.60;;;;;;5000713;28;20060;-68
2022/02/18 09:55:10;;;;;;;0.57;0.50;;;24.50;48.80;;;;;;4999376;28;20034;-66
2022/02/18 09:57:37;;;;;;;1.00;0.50;;;24.50;49.00;;;;;;5000072;28;20394;-64
2022/02/18 10:00:07;;;;;;;0.60;0.50;;;24.50;49.00;;;;;;4997392;28;20159;-66
2022/02/18 10:02:35;;;;;;;0.60;0.43;;;24.50;48.50;;;;;;4999590;28;20568;-65
2022/02/18 10:05:01;;;;;;;1.92;0.63;;;24.50;48.50;;;;;;4998317;28;20037;-66
2022/02/18 10:07:27;;;;;;;0.60;0.50;;;24.50;48.70;;;;;;5000666;28;20538;-65
2022/02/18 10:09:53;;;;;;;0.90;0.65;;;24.50;49.30;;;;;;4998186;28;20058;-63
2022/02/18 10:12:34;;;;;;;1.63;0.68;;;24.50;48.70;;;;;;4999848;28;20072;-63
2022/02/18 10:15:09;;;;;;;1.02;0.55;;;24.60;48.80;;;;;;4996408;28;20474;-65
2022/02/18 10:17:40;;;;;;;1.00;0.70;;;24.60;48.90;;;;;;4999763;28;20105;-66
2022/02/18 10:20:21;;;;;;;1.00;0.60;;;24.60;49.10;;;;;;4998796;28;20149;-68
2022/02/18 10:23:13;;;;;;;0.90;0.70;;;24.60;49.40;;;;;;4999267;28;20034;-66
2022/02/18 10:25:41;;;;;;;1.77;1.02;;;24.60;48.50;;;;;;4994433;28;20042;-68
2022/02/18 10:28:10;;;;;;;2.38;1.33;;;24.60;45.20;;;;;;4997147;28;20033;-67
2022/02/18 10:30:37;;;;;;;1.80;0.88;;;24.50;44.10;;;;;;4992827;28;20090;-67
2022/02/18 10:33:11;;;;;;;2.38;0.95;;;24.50;44.50;;;;;;4997670;28;20038;-67
2022/02/18 10:35:37;;;;;;;0.90;0.68;;;24.40;44.30;;;;;;4994244;28;21011;-66
2022/02/18 10:38:03;;;;;;;1.23;0.70;;;24.40;44.50;;;;;;4996889;28;20475;-66
2022/02/18 10:40:31;;;;;;;1.52;0.70;;;24.40;44.50;;;;;;5008406;28;20038;-65
2022/02/18 10:43:08;;;;;;;1.50;0.80;;;24.40;44.70;;;;;;4996427;28;20555;-66
2022/02/18 10:45:34;;;;;;;1.15;0.70;;;24.40;44.70;;;;;;4995010;28;20022;-67
2022/02/18 10:48:08;;;;;;;1.55;0.80;;;24.40;44.70;;;;;;4996244;28;20045;-66
2022/02/18 10:50:35;;;;;;;1.23;0.70;;;24.40;44.70;;;;;;4996689;28;20032;-66
2022/02/18 10:53:19;;;;;;;1.77;0.70;;;24.40;44.80;;;;;;5012589;28;20061;-66
2022/02/18 10:55:57;;;;;;;0.63;0.60;;;24.40;44.70;;;;;;4995999;28;20095;-66
2022/02/18 10:58:28;;;;;;;1.35;0.90;;;24.40;44.70;;;;;;5010813;28;20037;-67
2022/02/18 11:01:23;;;;;;;1.08;0.70;;;24.40;44.70;;;;;;4995685;28;20066;-66
2022/02/18 11:03:50;;;;;;;1.00;0.70;;;24.30;44.60;;;;;;4995855;28;20137;-66
2022/02/18 11:06:18;;;;;;;2.38;0.60;;;24.40;44.80;;;;;;4998641;28;20014;-65
2022/02/18 11:09:00;;;;;;;1.67;0.90;;;24.40;46.40;;;;;;5014032;28;20034;-65
2022/02/18 11:11:44;;;;;;;1.45;0.70;;;24.50;46.70;;;;;;4997860;28;20311;-65
2022/02/18 11:14:17;;;;;;;1.23;0.60;;;24.50;46.40;;;;;;4997658;28;20022;-66
2022/02/18 11:16:55;;;;;;;0.90;0.70;;;24.50;45.40;;;;;;4997331;28;20295;-66
2022/02/18 11:19:22;;;;;;;1.30;0.80;;;24.50;45.10;;;;;;4999032;28;20024;-62
2022/02/18 11:21:49;;;;;;;1.05;0.70;;;24.50;44.90;;;;;;4999141;28;20030;-62
2022/02/18 11:24:16;;;;;;;1.38;0.77;;;24.40;44.80;;;;;;4999110;28;20113;-67
2022/02/18 11:26:46;;;;;;;1.05;0.60;;;24.40;44.70;;;;;;5003667;28;20092;-67
2022/02/18 11:29:11;;;;;;;;;;;24.40;44.70;;;;;;4997001;28;20026;-66
2022/02/18 11:31:50;;;;;;;1.42;0.65;;;24.40;44.50;;;;;;4994940;28;19983;-65
2022/02/18 11:34:37;;;;;;;0.97;0.60;;;24.40;44.50;;;;;;4996757;28;20034;-65
2022/02/18 11:37:31;;;;;;;1.13;0.70;;;24.40;44.10;;;;;;5015088;28;20541;-65
2022/02/18 11:39:59;;;;;;;1.20;0.77;;;24.40;43.90;;;;;;4998201;28;20725;-67
2022/02/18 11:42:25;;;;;;;1.75;0.90;;;24.40;44.30;;;;;;5013655;28;20088;-65
2022/02/18 11:44:51;;;;;;;1.85;0.93;;;24.30;43.40;;;;;;4997799;28;20116;-68
2022/02/18 11:47:19;;;;;;;1.65;0.93;;;24.30;43.20;;;;;;4997860;28;20033;-64
2022/02/18 11:49:46;;;;;;;2.35;0.93;;;24.30;43.00;;;;;;4995504;28;20095;-68
2022/02/18 11:52:14;;;;;;;2.03;0.93;;;24.30;43.10;;;;;;4998527;28;20121;-67
2022/02/18 11:54:40;;;;;;;1.85;0.90;;;24.30;43.30;;;;;;5001306;28;20075;-68
2022/02/18 11:57:17;;;;;;;1.70;0.95;;;24.20;43.40;;;;;;5011591;28;20030;-65
2022/02/18 11:59:59;;;;;;;1.75;0.90;;;24.20;43.40;;;;;;4995127;28;20034;-67
2022/02/18 12:02:48;;;;;;;2.65;1.00;;;24.20;43.30;;;;;;5012318;28;20038;-68
2022/02/18 12:05:19;;;;;;;1.88;0.90;;;24.10;43.20;;;;;;4997426;28;20022;-66
2022/02/18 12:07:50;;;;;;;1.42;0.90;;;24.10;43.30;;;;;;4997287;28;20030;-69
2022/02/18 12:10:23;;;;;;;1.30;0.80;;;24.10;43.50;;;;;;5013084;28;20518;-68
2022/02/18 12:12:49;;;;;;;2.53;1.00;;;24.10;43.70;;;;;;4998116;28;20049;-69
2022/02/18 12:15:33;;;;;;;1.83;0.90;;;24.00;43.50;;;;;;4993867;28;20030;-68
2022/02/18 12:18:04;;;;;;;1.83;0.90;;;24.00;43.60;;;;;;4995635;28;20465;-66
2022/02/18 12:20:32;;;;;;;2.58;1.27;;;24.00;43.60;;;;;;4992489;28;20030;-67
2022/02/18 12:23:18;;;;;;;2.20;1.00;;;24.00;43.60;;;;;;4993636;28;20022;-69
2022/02/18 12:25:43;;;;;;;2.35;0.98;;;24.00;43.80;;;;;;4996173;28;20046;-68
2022/02/18 12:28:18;;;;;;;1.63;0.90;;;24.00;43.80;;;;;;4994248;28;20087;-66
2022/02/18 12:31:09;;;;;;;1.77;0.90;;;23.90;43.80;;;;;;4993122;28;20053;-70
2022/02/18 12:33:36;;;;;;;1.70;0.90;;;23.90;43.80;;;;;;5011013;28;20041;-64
2022/02/18 12:36:06;;;;;;;1.70;0.90;;;23.90;43.80;;;;;;4994202;28;20160;-68
2022/02/18 12:38:32;;;;;;;1.65;1.05;;;23.90;43.90;;;;;;4995687;28;20443;-67
2022/02/18 12:40:57;;;;;;;1.52;0.90;;;23.90;43.90;;;;;;4995607;28;20104;-65
2022/02/18 12:43:23;;;;;;;1.77;1.10;;;23.90;44.00;;;;;;4996460;28;20490;-67
2022/02/18 12:45:57;;;;;;;1.88;0.90;;;23.90;43.90;;;;;;4993323;28;20030;-69
2022/02/18 12:48:35;;;;;;;1.88;0.80;;;23.90;43.90;;;;;;4993977;28;20018;-68